Horseshoe Lake, Washington
Current Conditions -  °F | °C
As of 6:55 AM on Saturday 01 Nov 2014 (Local Time) from KPWT Reporting Station
Overcast Overcast  
Wind Chill: 42°   Ceiling: 300
Heat Index: 45°   Visibility: 6mi
Dew Point: 43°   Wind: 5mph
Humidity: 93%   Direction: 360°N
Pressure: 29.89"   Gusts: NA
Location:  47.5378°N, 122.589°W
Report Text: KPWT 011355Z AUTO 36004KT 6SM OVC003 07/06 A2989 RMK AO1
Loading
Personal Weather Stations






























Interactive Weather Map
Tropical Storm Tracking
New forecast layout! Learn more

10-Day Weather Forecast

Advertisements
Track Severe Weather on mobile